sensor_id;sensor_type;location;lat;lon;timestamp;pressure;altitude;pressure_sealevel;temperature;humidity
64095;BME280;50353;51.420;5.682;2023-09-18T00:00:21;100341.91;;;19.30;100.00
64095;BME280;50353;51.420;5.682;2023-09-18T00:02:47;100335.19;;;19.26;100.00
64095;BME280;50353;51.420;5.682;2023-09-18T00:05:13;100332.44;;;19.09;100.00
64095;BME280;50353;51.420;5.682;2023-09-18T00:07:41;100322.22;;;19.05;100.00
64095;BME280;50353;51.420;5.682;2023-09-18T00:10:07;100326.72;;;19.04;100.00
64095;BME280;50353;51.420;5.682;2023-09-18T00:12:32;100310.56;;;19.14;100.00
64095;BME280;50353;51.420;5.682;2023-09-18T00:14:57;100307.69;;;19.07;100.00
64095;BME280;50353;51.420;5.682;2023-09-18T00:17:23;100305.34;;;19.21;100.00
64095;BME280;50353;51.420;5.682;2023-09-18T00:19:49;100307.03;;;19.22;100.00
64095;BME280;50353;51.420;5.682;2023-09-18T00:22:14;100294.31;;;19.16;100.00
64095;BME280;50353;51.420;5.682;2023-09-18T00:24:39;100290.53;;;19.00;100.00
64095;BME280;50353;51.420;5.682;2023-09-18T00:27:04;100288.75;;;19.09;100.00
64095;BME280;50353;51.420;5.682;2023-09-18T00:29:30;100288.09;;;19.15;100.00
64095;BME280;50353;51.420;5.682;2023-09-18T00:31:55;100289.44;;;19.19;100.00
64095;BME280;50353;51.420;5.682;2023-09-18T00:34:20;100279.09;;;19.24;100.00
64095;BME280;50353;51.420;5.682;2023-09-18T00:36:45;100272.06;;;19.40;100.00
64095;BME280;50353;51.420;5.682;2023-09-18T00:39:11;100260.50;;;19.31;100.00
64095;BME280;50353;51.420;5.682;2023-09-18T00:41:36;100266.69;;;19.32;100.00
64095;BME280;50353;51.420;5.682;2023-09-18T00:44:01;100267.38;;;19.34;100.00
64095;BME280;50353;51.420;5.682;2023-09-18T00:46:27;100265.06;;;19.39;100.00
64095;BME280;50353;51.420;5.682;2023-09-18T00:48:53;100255.84;;;19.41;100.00
64095;BME280;50353;51.420;5.682;2023-09-18T00:51:19;100260.00;;;19.36;100.00
64095;BME280;50353;51.420;5.682;2023-09-18T00:53:45;100249.16;;;19.37;100.00
64095;BME280;50353;51.420;5.682;2023-09-18T00:56:13;100243.81;;;19.62;100.00
64095;BME280;50353;51.420;5.682;2023-09-18T00:58:39;100242.47;;;19.50;100.00
64095;BME280;50353;51.420;5.682;2023-09-18T01:01:04;100240.59;;;19.42;100.00
64095;BME280;50353;51.420;5.682;2023-09-18T01:03:30;100224.88;;;19.55;100.00
64095;BME280;50353;51.420;5.682;2023-09-18T01:05:55;100224.88;;;19.47;100.00
64095;BME280;50353;51.420;5.682;2023-09-18T01:08:22;100226.53;;;19.48;100.00
64095;BME280;50353;51.420;5.682;2023-09-18T01:11:09;100220.69;;;19.45;100.00
64095;BME280;50353;51.420;5.682;2023-09-18T01:13:37;100209.78;;;19.54;100.00
64095;BME280;50353;51.420;5.682;2023-09-18T01:16:15;100208.28;;;19.52;100.00
64095;BME280;50353;51.420;5.682;2023-09-18T01:18:52;100212.81;;;19.51;100.00
64095;BME280;50353;51.420;5.682;2023-09-18T01:21:20;100214.81;;;19.49;100.00
64095;BME280;50353;51.420;5.682;2023-09-18T01:23:46;100212.13;;;19.49;100.00
64095;BME280;50353;51.420;5.682;2023-09-18T01:26:11;100211.94;;;19.51;100.00
64095;BME280;50353;51.420;5.682;2023-09-18T01:28:37;100203.72;;;19.36;100.00
64095;BME280;50353;51.420;5.682;2023-09-18T01:31:02;100207.94;;;19.47;100.00
64095;BME280;50353;51.420;5.682;2023-09-18T01:33:28;100210.31;;;19.66;100.00
64095;BME280;50353;51.420;5.682;2023-09-18T01:35:55;100204.44;;;19.71;100.00
64095;BME280;50353;51.420;5.682;2023-09-18T01:38:23;100193.88;;;19.69;100.00
64095;BME280;50353;51.420;5.682;2023-09-18T01:40:49;100193.19;;;19.67;100.00
64095;BME280;50353;51.420;5.682;2023-09-18T01:43:14;100180.63;;;19.68;100.00
64095;BME280;50353;51.420;5.682;2023-09-18T01:45:40;100186.34;;;19.73;100.00
64095;BME280;50353;51.420;5.682;2023-09-18T01:48:06;100175.09;;;19.61;100.00
64095;BME280;50353;51.420;5.682;2023-09-18T01:50:31;100179.78;;;19.59;100.00
64095;BME280;50353;51.420;5.682;2023-09-18T01:52:58;100176.28;;;19.50;100.00
64095;BME280;50353;51.420;5.682;2023-09-18T01:55:24;100180.81;;;19.58;100.00
64095;BME280;50353;51.420;5.682;2023-09-18T01:57:49;100182.63;;;19.66;100.00
64095;BME280;50353;51.420;5.682;2023-09-18T02:00:15;100175.63;;;19.65;100.00
64095;BME280;50353;51.420;5.682;2023-09-18T02:02:40;100175.09;;;19.77;100.00
64095;BME280;50353;51.420;5.682;2023-09-18T02:05:06;100161.84;;;19.76;100.00
64095;BME280;50353;51.420;5.682;2023-09-18T02:07:31;100161.19;;;19.74;100.00
64095;BME280;50353;51.420;5.682;2023-09-18T02:09:57;100161.34;;;19.72;100.00
64095;BME280;50353;51.420;5.682;2023-09-18T02:12:22;100157.50;;;19.75;100.00
64095;BME280;50353;51.420;5.682;2023-09-18T02:14:47;100156.50;;;19.76;100.00
64095;BME280;50353;51.420;5.682;2023-09-18T02:17:13;100151.81;;;19.86;100.00
64095;BME280;50353;51.420;5.682;2023-09-18T02:19:38;100154.84;;;19.83;100.00
64095;BME280;50353;51.420;5.682;2023-09-18T02:22:03;100141.41;;;19.83;100.00
64095;BME280;50353;51.420;5.682;2023-09-18T02:24:29;100135.06;;;19.84;100.00
64095;BME280;50353;51.420;5.682;2023-09-18T02:26:54;100132.56;;;19.83;100.00
64095;BME280;50353;51.420;5.682;2023-09-18T02:29:19;100121.63;;;19.92;100.00
64095;BME280;50353;51.420;5.682;2023-09-18T02:31:45;100118.59;;;19.96;100.00
64095;BME280;50353;51.420;5.682;2023-09-18T02:34:11;100096.34;;;19.87;100.00
64095;BME280;50353;51.420;5.682;2023-09-18T02:36:36;100097.84;;;19.89;100.00
64095;BME280;50353;51.420;5.682;2023-09-18T02:39:01;100095.47;;;19.78;100.00
64095;BME280;50353;51.420;5.682;2023-09-18T02:41:27;100088.13;;;19.80;100.00
64095;BME280;50353;51.420;5.682;2023-09-18T02:43:52;100099.00;;;19.87;100.00
64095;BME280;50353;51.420;5.682;2023-09-18T02:46:18;100104.03;;;19.90;100.00
64095;BME280;50353;51.420;5.682;2023-09-18T02:48:43;100107.06;;;19.79;100.00
64095;BME280;50353;51.420;5.682;2023-09-18T02:51:08;100112.91;;;19.82;100.00
64095;BME280;50353;51.420;5.682;2023-09-18T02:53:33;100113.03;;;20.05;100.00
64095;BME280;50353;51.420;5.682;2023-09-18T02:55:59;100111.16;;;20.14;100.00
64095;BME280;50353;51.420;5.682;2023-09-18T02:58:25;100101.28;;;20.06;100.00
64095;BME280;50353;51.420;5.682;2023-09-18T03:00:51;100098.13;;;20.03;100.00
64095;BME280;50353;51.420;5.682;2023-09-18T03:03:17;100097.41;;;20.17;100.00
64095;BME280;50353;51.420;5.682;2023-09-18T03:05:43;100098.25;;;20.09;100.00
64095;BME280;50353;51.420;5.682;2023-09-18T03:08:10;100084.56;;;20.04;100.00
64095;BME280;50353;51.420;5.682;2023-09-18T03:10:37;100075.47;;;20.05;100.00
64095;BME280;50353;51.420;5.682;2023-09-18T03:13:05;100069.81;;;20.00;100.00
64095;BME280;50353;51.420;5.682;2023-09-18T03:15:31;100068.00;;;19.84;100.00
64095;BME280;50353;51.420;5.682;2023-09-18T03:17:57;100064.13;;;19.95;100.00
64095;BME280;50353;51.420;5.682;2023-09-18T03:20:24;100063.56;;;20.08;100.00
64095;BME280;50353;51.420;5.682;2023-09-18T03:22:51;100063.16;;;20.27;100.00
64095;BME280;50353;51.420;5.682;2023-09-18T03:25:16;100080.00;;;20.44;100.00
64095;BME280;50353;51.420;5.682;2023-09-18T03:27:41;100097.66;;;20.39;100.00
64095;BME280;50353;51.420;5.682;2023-09-18T03:30:07;100104.03;;;20.38;100.00
64095;BME280;50353;51.420;5.682;2023-09-18T03:32:33;100122.09;;;20.52;100.00
64095;BME280;50353;51.420;5.682;2023-09-18T03:34:58;100110.22;;;20.47;100.00
64095;BME280;50353;51.420;5.682;2023-09-18T03:37:23;100108.00;;;20.50;100.00
64095;BME280;50353;51.420;5.682;2023-09-18T03:39:48;100086.81;;;20.55;100.00
64095;BME280;50353;51.420;5.682;2023-09-18T03:42:14;100097.44;;;20.49;100.00
64095;BME280;50353;51.420;5.682;2023-09-18T03:44:39;100081.78;;;20.60;100.00
64095;BME280;50353;51.420;5.682;2023-09-18T03:47:04;100081.13;;;20.50;100.00
64095;BME280;50353;51.420;5.682;2023-09-18T03:49:30;100093.97;;;20.40;100.00
64095;BME280;50353;51.420;5.682;2023-09-18T03:51:55;100092.56;;;20.52;100.00
64095;BME280;50353;51.420;5.682;2023-09-18T03:54:20;100091.59;;;20.45;100.00
64095;BME280;50353;51.420;5.682;2023-09-18T03:56:46;100086.69;;;20.49;100.00
64095;BME280;50353;51.420;5.682;2023-09-18T03:59:12;100072.41;;;20.56;100.00
64095;BME280;50353;51.420;5.682;2023-09-18T04:01:37;100062.41;;;20.42;100.00
64095;BME280;50353;51.420;5.682;2023-09-18T04:04:02;100053.34;;;20.43;100.00
64095;BME280;50353;51.420;5.682;2023-09-18T04:06:36;100053.16;;;20.44;100.00
64095;BME280;50353;51.420;5.682;2023-09-18T04:09:02;100060.06;;;20.39;100.00
64095;BME280;50353;51.420;5.682;2023-09-18T04:11:27;100078.84;;;20.39;100.00
64095;BME280;50353;51.420;5.682;2023-09-18T04:13:52;100077.75;;;20.25;100.00
64095;BME280;50353;51.420;5.682;2023-09-18T04:16:17;100074.56;;;20.21;100.00
64095;BME280;50353;51.420;5.682;2023-09-18T04:18:43;100073.72;;;20.29;100.00
64095;BME280;50353;51.420;5.682;2023-09-18T04:21:08;100065.84;;;20.27;100.00
64095;BME280;50353;51.420;5.682;2023-09-18T04:23:35;100053.81;;;20.15;100.00
64095;BME280;50353;51.420;5.682;2023-09-18T04:26:01;100050.19;;;20.31;100.00
64095;BME280;50353;51.420;5.682;2023-09-18T04:28:27;100040.56;;;20.14;100.00
64095;BME280;50353;51.420;5.682;2023-09-18T04:30:52;100028.31;;;20.19;100.00
64095;BME280;50353;51.420;5.682;2023-09-18T04:33:18;100015.03;;;20.18;100.00
64095;BME280;50353;51.420;5.682;2023-09-18T04:35:43;100018.25;;;20.13;100.00
64095;BME280;50353;51.420;5.682;2023-09-18T04:38:09;100015.53;;;20.21;100.00
64095;BME280;50353;51.420;5.682;2023-09-18T04:40:36;100003.69;;;20.07;100.00
64095;BME280;50353;51.420;5.682;2023-09-18T04:43:01;100009.38;;;20.13;100.00
64095;BME280;50353;51.420;5.682;2023-09-18T04:45:31;100000.53;;;20.04;100.00
64095;BME280;50353;51.420;5.682;2023-09-18T04:47:56;99998.66;;;20.13;100.00
64095;BME280;50353;51.420;5.682;2023-09-18T04:50:22;99990.78;;;20.11;100.00
64095;BME280;50353;51.420;5.682;2023-09-18T04:52:47;100004.97;;;20.20;100.00
64095;BME280;50353;51.420;5.682;2023-09-18T04:55:13;99992.53;;;20.27;100.00
64095;BME280;50353;51.420;5.682;2023-09-18T04:57:39;99983.25;;;20.06;100.00
64095;BME280;50353;51.420;5.682;2023-09-18T05:00:05;99995.34;;;20.02;100.00
64095;BME280;50353;51.420;5.682;2023-09-18T05:02:35;99982.97;;;19.93;100.00
64095;BME280;50353;51.420;5.682;2023-09-18T05:05:01;99994.00;;;19.98;100.00
64095;BME280;50353;51.420;5.682;2023-09-18T05:07:28;99996.28;;;20.09;100.00
64095;BME280;50353;51.420;5.682;2023-09-18T05:09:53;99996.78;;;20.13;100.00
64095;BME280;50353;51.420;5.682;2023-09-18T05:12:18;100000.97;;;20.16;100.00
64095;BME280;50353;51.420;5.682;2023-09-18T05:14:44;100001.03;;;20.07;100.00
64095;BME280;50353;51.420;5.682;2023-09-18T05:17:15;100008.56;;;20.04;100.00
64095;BME280;50353;51.420;5.682;2023-09-18T05:19:41;100006.78;;;19.96;100.00
64095;BME280;50353;51.420;5.682;2023-09-18T05:22:07;100009.16;;;19.91;100.00
64095;BME280;50353;51.420;5.682;2023-09-18T05:24:33;100005.97;;;19.87;100.00
64095;BME280;50353;51.420;5.682;2023-09-18T05:26:58;100011.78;;;19.99;100.00
64095;BME280;50353;51.420;5.682;2023-09-18T05:29:24;100017.31;;;20.06;100.00
64095;BME280;50353;51.420;5.682;2023-09-18T05:31:49;100012.56;;;20.08;100.00
64095;BME280;50353;51.420;5.682;2023-09-18T05:34:14;100017.66;;;19.95;100.00
64095;BME280;50353;51.420;5.682;2023-09-18T05:36:40;100012.97;;;19.97;100.00
64095;BME280;50353;51.420;5.682;2023-09-18T05:39:06;100033.03;;;20.09;100.00
64095;BME280;50353;51.420;5.682;2023-09-18T05:41:35;100031.78;;;19.88;100.00
64095;BME280;50353;51.420;5.682;2023-09-18T05:44:00;100031.56;;;19.98;100.00
64095;BME280;50353;51.420;5.682;2023-09-18T05:46:28;100030.75;;;19.98;100.00
64095;BME280;50353;51.420;5.682;2023-09-18T05:48:54;100042.84;;;19.93;100.00
64095;BME280;50353;51.420;5.682;2023-09-18T05:51:21;100047.88;;;19.88;100.00
64095;BME280;50353;51.420;5.682;2023-09-18T05:53:47;100045.19;;;19.88;100.00
64095;BME280;50353;51.420;5.682;2023-09-18T05:56:12;100046.13;;;20.04;100.00
64095;BME280;50353;51.420;5.682;2023-09-18T05:58:39;100050.88;;;19.93;100.00
64095;BME280;50353;51.420;5.682;2023-09-18T06:01:04;100052.53;;;19.95;100.00
64095;BME280;50353;51.420;5.682;2023-09-18T06:03:30;100048.81;;;20.04;100.00
64095;BME280;50353;51.420;5.682;2023-09-18T06:06:01;100060.91;;;20.00;100.00
64095;BME280;50353;51.420;5.682;2023-09-18T06:08:26;100071.38;;;20.26;98.99
64095;BME280;50353;51.420;5.682;2023-09-18T06:10:51;100073.94;;;20.19;99.48
64095;BME280;50353;51.420;5.682;2023-09-18T06:13:17;100066.28;;;20.00;100.00
64095;BME280;50353;51.420;5.682;2023-09-18T06:15:42;100055.53;;;20.00;100.00
64095;BME280;50353;51.420;5.682;2023-09-18T06:18:07;100062.50;;;20.17;99.27
64095;BME280;50353;51.420;5.682;2023-09-18T06:20:33;100057.91;;;20.03;100.00
64095;BME280;50353;51.420;5.682;2023-09-18T06:22:58;100071.16;;;19.96;99.73
64095;BME280;50353;51.420;5.682;2023-09-18T06:25:23;100072.84;;;19.89;100.00
64095;BME280;50353;51.420;5.682;2023-09-18T06:27:49;100079.56;;;19.85;100.00
64095;BME280;50353;51.420;5.682;2023-09-18T06:30:14;100076.56;;;19.88;100.00
64095;BME280;50353;51.420;5.682;2023-09-18T06:32:40;100069.34;;;19.88;100.00
64095;BME280;50353;51.420;5.682;2023-09-18T06:35:05;100071.19;;;19.88;100.00
64095;BME280;50353;51.420;5.682;2023-09-18T06:37:31;100074.69;;;19.88;100.00
64095;BME280;50353;51.420;5.682;2023-09-18T06:39:56;100097.47;;;20.01;100.00
64095;BME280;50353;51.420;5.682;2023-09-18T06:42:24;100101.34;;;19.90;100.00
64095;BME280;50353;51.420;5.682;2023-09-18T06:44:49;100103.66;;;20.01;99.84
64095;BME280;50353;51.420;5.682;2023-09-18T06:47:14;100108.16;;;20.09;99.24
64095;BME280;50353;51.420;5.682;2023-09-18T06:49:41;100123.94;;;20.04;99.61
64095;BME280;50353;51.420;5.682;2023-09-18T06:52:07;100114.22;;;19.95;99.53
64095;BME280;50353;51.420;5.682;2023-09-18T06:54:32;100110.53;;;20.04;98.85
64095;BME280;50353;51.420;5.682;2023-09-18T06:56:58;100114.88;;;20.05;98.90
64095;BME280;50353;51.420;5.682;2023-09-18T06:59:23;100113.59;;;19.92;100.00
64095;BME280;50353;51.420;5.682;2023-09-18T07:01:48;100123.31;;;19.85;100.00
64095;BME280;50353;51.420;5.682;2023-09-18T07:04:14;100120.09;;;19.98;99.79
64095;BME280;50353;51.420;5.682;2023-09-18T07:06:39;100114.75;;;19.90;99.61
64095;BME280;50353;51.420;5.682;2023-09-18T07:09:05;100113.59;;;19.76;100.00
64095;BME280;50353;51.420;5.682;2023-09-18T07:11:33;100119.47;;;19.80;99.68
64095;BME280;50353;51.420;5.682;2023-09-18T07:13:58;100133.56;;;19.82;99.88
64095;BME280;50353;51.420;5.682;2023-09-18T07:16:24;100126.34;;;19.82;100.00
64095;BME280;50353;51.420;5.682;2023-09-18T07:18:50;100121.97;;;19.89;98.78
64095;BME280;50353;51.420;5.682;2023-09-18T07:21:15;100128.81;;;19.75;99.53
64095;BME280;50353;51.420;5.682;2023-09-18T07:23:40;100141.75;;;19.97;98.82
64095;BME280;50353;51.420;5.682;2023-09-18T07:26:06;100139.59;;;19.84;100.00
64095;BME280;50353;51.420;5.682;2023-09-18T07:28:31;100158.84;;;19.71;100.00
64095;BME280;50353;51.420;5.682;2023-09-18T07:30:56;100146.44;;;19.70;100.00
64095;BME280;50353;51.420;5.682;2023-09-18T07:33:22;100149.28;;;19.76;100.00
64095;BME280;50353;51.420;5.682;2023-09-18T07:35:48;100160.19;;;19.91;99.18
64095;BME280;50353;51.420;5.682;2023-09-18T07:38:14;100145.56;;;20.02;98.28
64095;BME280;50353;51.420;5.682;2023-09-18T07:40:39;100139.09;;;19.80;99.90
64095;BME280;50353;51.420;5.682;2023-09-18T07:43:04;100144.63;;;19.87;99.33
64095;BME280;50353;51.420;5.682;2023-09-18T07:45:30;100141.22;;;19.93;98.92
64095;BME280;50353;51.420;5.682;2023-09-18T07:47:55;100142.75;;;19.96;98.69
64095;BME280;50353;51.420;5.682;2023-09-18T07:50:20;100154.66;;;19.85;99.18
64095;BME280;50353;51.420;5.682;2023-09-18T07:52:46;100153.44;;;20.04;98.50
64095;BME280;50353;51.420;5.682;2023-09-18T07:55:11;100147.09;;;19.97;97.42
64095;BME280;50353;51.420;5.682;2023-09-18T07:57:36;100143.41;;;19.98;97.21
64095;BME280;50353;51.420;5.682;2023-09-18T08:00:03;100151.81;;;19.86;97.88
64095;BME280;50353;51.420;5.682;2023-09-18T08:02:34;100149.94;;;20.03;96.94
64095;BME280;50353;51.420;5.682;2023-09-18T08:05:00;100146.41;;;20.11;96.64
64095;BME280;50353;51.420;5.682;2023-09-18T08:07:27;100151.81;;;20.03;96.84
64095;BME280;50353;51.420;5.682;2023-09-18T08:09:53;100149.72;;;20.21;94.67
64095;BME280;50353;51.420;5.682;2023-09-18T08:12:18;100149.09;;;20.11;96.12
64095;BME280;50353;51.420;5.682;2023-09-18T08:14:43;100150.75;;;20.12;95.16
64095;BME280;50353;51.420;5.682;2023-09-18T08:17:08;100155.09;;;20.21;95.13
64095;BME280;50353;51.420;5.682;2023-09-18T08:19:34;100149.09;;;20.11;95.39
64095;BME280;50353;51.420;5.682;2023-09-18T08:22:00;100157.97;;;20.12;96.04
64095;BME280;50353;51.420;5.682;2023-09-18T08:24:26;100164.72;;;20.47;93.23
64095;BME280;50353;51.420;5.682;2023-09-18T08:26:51;100171.25;;;20.53;92.81
64095;BME280;50353;51.420;5.682;2023-09-18T08:29:17;100176.63;;;20.53;92.55
64095;BME280;50353;51.420;5.682;2023-09-18T08:31:43;100184.44;;;20.15;94.57
64095;BME280;50353;51.420;5.682;2023-09-18T08:34:08;100188.78;;;20.32;93.77
64095;BME280;50353;51.420;5.682;2023-09-18T08:36:33;100193.63;;;20.29;93.97
64095;BME280;50353;51.420;5.682;2023-09-18T08:38:59;100191.31;;;20.17;94.56
64095;BME280;50353;51.420;5.682;2023-09-18T08:41:28;100188.44;;;20.27;94.26
64095;BME280;50353;51.420;5.682;2023-09-18T08:43:59;100190.47;;;20.25;94.19
64095;BME280;50353;51.420;5.682;2023-09-18T08:46:25;100195.31;;;20.30;94.28
64095;BME280;50353;51.420;5.682;2023-09-18T08:48:51;100194.97;;;20.33;93.54
64095;BME280;50353;51.420;5.682;2023-09-18T08:51:18;100190.94;;;20.45;92.64
64095;BME280;50353;51.420;5.682;2023-09-18T08:53:43;100188.59;;;20.34;93.04
64095;BME280;50353;51.420;5.682;2023-09-18T08:56:10;100199.47;;;20.49;93.37
64095;BME280;50353;51.420;5.682;2023-09-18T08:58:38;100199.06;;;20.76;91.36
64095;BME280;50353;51.420;5.682;2023-09-18T09:01:07;100196.53;;;20.67;91.58
64095;BME280;50353;51.420;5.682;2023-09-18T09:03:41;100181.78;;;20.63;92.18
64095;BME280;50353;51.420;5.682;2023-09-18T09:06:08;100191.81;;;20.77;91.59
64095;BME280;50353;51.420;5.682;2023-09-18T09:08:34;100189.84;;;20.63;91.70
64095;BME280;50353;51.420;5.682;2023-09-18T09:11:00;100207.72;;;21.18;89.41
64095;BME280;50353;51.420;5.682;2023-09-18T09:13:25;100205.28;;;21.78;86.27
64095;BME280;50353;51.420;5.682;2023-09-18T09:15:56;100215.06;;;22.47;84.36
64095;BME280;50353;51.420;5.682;2023-09-18T09:18:24;100195.44;;;22.68;83.64
64095;BME280;50353;51.420;5.682;2023-09-18T09:21:02;100205.28;;;22.76;82.75
64095;BME280;50353;51.420;5.682;2023-09-18T09:23:45;100194.28;;;22.92;81.43
64095;BME280;50353;51.420;5.682;2023-09-18T09:26:15;100205.78;;;22.50;81.39
64095;BME280;50353;51.420;5.682;2023-09-18T09:28:41;100201.94;;;22.29;82.67
64095;BME280;50353;51.420;5.682;2023-09-18T09:31:08;100210.03;;;22.74;81.81
64095;BME280;50353;51.420;5.682;2023-09-18T09:33:34;100214.34;;;23.05;79.08
64095;BME280;50353;51.420;5.682;2023-09-18T09:35:59;100206.66;;;23.02;78.69
64095;BME280;50353;51.420;5.682;2023-09-18T09:38:29;100212.03;;;23.17;79.50
64095;BME280;50353;51.420;5.682;2023-09-18T09:40:57;100219.78;;;22.60;79.17
64095;BME280;50353;51.420;5.682;2023-09-18T09:43:25;100203.34;;;22.40;80.19
64095;BME280;50353;51.420;5.682;2023-09-18T09:46:00;100206.31;;;22.75;78.85
64095;BME280;50353;51.420;5.682;2023-09-18T09:48:26;100202.34;;;23.07;78.20
64095;BME280;50353;51.420;5.682;2023-09-18T09:50:51;100214.63;;;23.10;80.02
64095;BME280;50353;51.420;5.682;2023-09-18T09:53:18;100204.38;;;23.63;74.46
64095;BME280;50353;51.420;5.682;2023-09-18T09:55:44;100212.53;;;23.70;73.74
64095;BME280;50353;51.420;5.682;2023-09-18T09:58:10;100217.75;;;23.72;74.15
64095;BME280;50353;51.420;5.682;2023-09-18T10:00:45;100212.53;;;23.49;74.20
64095;BME280;50353;51.420;5.682;2023-09-18T10:03:16;100211.84;;;23.40;75.11
64095;BME280;50353;51.420;5.682;2023-09-18T10:05:43;100213.78;;;23.89;72.74
64095;BME280;50353;51.420;5.682;2023-09-18T10:08:16;100219.72;;;23.85;72.07
64095;BME280;50353;51.420;5.682;2023-09-18T10:10:53;100219.31;;;24.09;72.20
64095;BME280;50353;51.420;5.682;2023-09-18T10:15:50;100243.69;;;23.73;73.01
64095;BME280;50353;51.420;5.682;2023-09-18T10:18:42;100241.94;;;23.22;74.76
64095;BME280;50353;51.420;5.682;2023-09-18T10:21:22;100242.53;;;22.72;77.22
64095;BME280;50353;51.420;5.682;2023-09-18T10:24:14;100245.44;;;22.41;77.79
64095;BME280;50353;51.420;5.682;2023-09-18T10:26:48;100249.81;;;22.72;77.53
64095;BME280;50353;51.420;5.682;2023-09-18T10:29:15;100246.34;;;22.48;79.11
64095;BME280;50353;51.420;5.682;2023-09-18T10:31:44;100245.25;;;22.42;79.20
64095;BME280;50353;51.420;5.682;2023-09-18T10:34:10;100246.63;;;22.53;78.81
64095;BME280;50353;51.420;5.682;2023-09-18T10:36:37;100245.25;;;22.72;79.34
64095;BME280;50353;51.420;5.682;2023-09-18T10:39:05;100246.00;;;22.66;78.30
64095;BME280;50353;51.420;5.682;2023-09-18T10:41:33;100234.81;;;22.99;76.19
64095;BME280;50353;51.420;5.682;2023-09-18T10:43:59;100239.31;;;23.72;74.80
64095;BME280;50353;51.420;5.682;2023-09-18T10:46:26;100235.06;;;23.41;75.24
64095;BME280;50353;51.420;5.682;2023-09-18T10:48:52;100238.63;;;23.41;76.03
64095;BME280;50353;51.420;5.682;2023-09-18T10:51:23;100235.00;;;22.98;76.04
64095;BME280;50353;51.420;5.682;2023-09-18T10:53:48;100236.53;;;23.07;76.46
64095;BME280;50353;51.420;5.682;2023-09-18T10:56:19;100235.94;;;22.75;77.54
64095;BME280;50353;51.420;5.682;2023-09-18T10:58:44;100230.09;;;22.56;78.41
64095;BME280;50353;51.420;5.682;2023-09-18T11:01:12;100220.72;;;22.67;77.60
64095;BME280;50353;51.420;5.682;2023-09-18T11:03:38;100233.94;;;22.62;78.52
64095;BME280;50353;51.420;5.682;2023-09-18T11:06:05;100224.84;;;22.25;80.14
64095;BME280;50353;51.420;5.682;2023-09-18T11:08:44;100221.63;;;22.15;80.06
64095;BME280;50353;51.420;5.682;2023-09-18T11:11:13;100231.88;;;22.49;79.88
64095;BME280;50353;51.420;5.682;2023-09-18T11:18:54;100217.16;;;23.98;73.67
64095;BME280;50353;51.420;5.682;2023-09-18T11:21:31;100236.06;;;23.76;73.30
64095;BME280;50353;51.420;5.682;2023-09-18T11:24:18;100240.03;;;23.80;72.75
64095;BME280;50353;51.420;5.682;2023-09-18T11:26:48;100237.84;;;23.69;72.29
64095;BME280;50353;51.420;5.682;2023-09-18T11:29:17;100225.16;;;24.13;70.84
64095;BME280;50353;51.420;5.682;2023-09-18T11:31:53;100242.41;;;24.12;72.70
64095;BME280;50353;51.420;5.682;2023-09-18T11:34:26;100232.47;;;23.91;70.32
64095;BME280;50353;51.420;5.682;2023-09-18T11:36:57;100240.88;;;23.81;70.48
64095;BME280;50353;51.420;5.682;2023-09-18T11:39:48;100231.75;;;23.60;71.95
64095;BME280;50353;51.420;5.682;2023-09-18T11:42:19;100236.38;;;23.45;72.52
64095;BME280;50353;51.420;5.682;2023-09-18T11:44:45;100226.22;;;23.47;73.14
64095;BME280;50353;51.420;5.682;2023-09-18T11:47:16;100225.88;;;22.99;71.59
64095;BME280;50353;51.420;5.682;2023-09-18T11:49:52;100223.56;;;22.95;72.24
64095;BME280;50353;51.420;5.682;2023-09-18T11:52:21;100219.41;;;22.63;73.79
64095;BME280;50353;51.420;5.682;2023-09-18T11:54:47;100229.94;;;22.58;73.15
64095;BME280;50353;51.420;5.682;2023-09-18T11:57:13;100232.03;;;22.33;72.40
64095;BME280;50353;51.420;5.682;2023-09-18T11:59:42;100226.59;;;22.56;74.22
64095;BME280;50353;51.420;5.682;2023-09-18T12:02:09;100230.28;;;22.40;74.99
64095;BME280;50353;51.420;5.682;2023-09-18T12:04:36;100228.56;;;22.09;76.43
64095;BME280;50353;51.420;5.682;2023-09-18T12:07:04;100229.72;;;22.29;75.45
64095;BME280;50353;51.420;5.682;2023-09-18T12:09:39;100226.38;;;22.42;76.42
64095;BME280;50353;51.420;5.682;2023-09-18T12:12:05;100226.34;;;23.17;76.24
64095;BME280;50353;51.420;5.682;2023-09-18T12:14:32;100226.72;;;23.79;74.42
64095;BME280;50353;51.420;5.682;2023-09-18T12:17:00;100214.13;;;23.86;72.05
64095;BME280;50353;51.420;5.682;2023-09-18T12:19:27;100206.25;;;24.13;69.89
64095;BME280;50353;51.420;5.682;2023-09-18T12:21:52;100194.78;;;24.04;69.69
64095;BME280;50353;51.420;5.682;2023-09-18T12:24:25;100209.09;;;23.83;68.94
64095;BME280;50353;51.420;5.682;2023-09-18T12:26:52;100197.06;;;24.36;67.73
64095;BME280;50353;51.420;5.682;2023-09-18T12:29:18;100203.84;;;24.60;68.71
64095;BME280;50353;51.420;5.682;2023-09-18T12:31:43;100202.91;;;24.81;68.64
64095;BME280;50353;51.420;5.682;2023-09-18T12:34:19;100196.38;;;24.62;67.29
64095;BME280;50353;51.420;5.682;2023-09-18T12:36:48;100188.84;;;24.57;64.10
64095;BME280;50353;51.420;5.682;2023-09-18T12:39:15;100186.03;;;24.72;64.04
64095;BME280;50353;51.420;5.682;2023-09-18T12:41:44;100188.16;;;24.42;61.11
64095;BME280;50353;51.420;5.682;2023-09-18T12:44:09;100186.88;;;24.38;59.81
64095;BME280;50353;51.420;5.682;2023-09-18T12:46:36;100186.16;;;24.57;60.49
64095;BME280;50353;51.420;5.682;2023-09-18T12:49:35;100182.91;;;24.69;62.08
64095;BME280;50353;51.420;5.682;2023-09-18T12:52:01;100188.56;;;24.80;59.06